Time;durP1;ratioP1;P1;durP2;ratioP2;P2;SDS_P1;SDS_P2;PMS_P1;PMS_P2;Temp;Humidity;BMP_temperature;BMP_pressure;BME280_temperature;BME280_humidity;BME280_pressure;Samples;Min_cycle;Max_cycle;Signal;HPM_P1;HPM_P2
2022/07/07 00:01:07;;;;;;;0.70;0.50;;;17.60;1.00;;;;;;5137400;27;21045;-72
2022/07/07 00:03:34;;;;;;;0.60;0.50;;;17.60;1.00;;;;;;5136975;27;20436;-73
2022/07/07 00:06:01;;;;;;;1.77;0.50;;;17.70;1.00;;;;;;5137180;27;20926;-72
2022/07/07 00:08:28;;;;;;;0.70;0.60;;;17.60;1.00;;;;;;5137882;27;20479;-72
2022/07/07 00:10:57;;;;;;;0.77;0.40;;;17.60;1.00;;;;;;5137170;27;20550;-72
2022/07/07 00:13:24;;;;;;;0.90;0.53;;;17.70;1.00;;;;;;5136168;27;20447;-72
2022/07/07 00:15:51;;;;;;;0.80;0.60;;;17.70;1.00;;;;;;5135827;27;20578;-73
2022/07/07 00:18:17;;;;;;;0.60;0.30;;;17.70;1.00;;;;;;5136323;27;20439;-73
2022/07/07 00:20:44;;;;;;;0.67;0.43;;;17.70;1.00;;;;;;5136650;27;20511;-73
2022/07/07 00:23:11;;;;;;;1.20;0.43;;;17.70;1.00;;;;;;5136350;27;20568;-73
2022/07/07 00:25:38;;;;;;;2.70;0.50;;;17.80;1.00;;;;;;5136859;27;20502;-73
2022/07/07 00:28:07;;;;;;;0.93;0.67;;;17.80;1.00;;;;;;5137469;27;20486;-72
2022/07/07 00:30:34;;;;;;;2.03;0.60;;;17.70;1.00;;;;;;5136761;27;20880;-73
2022/07/07 00:33:00;;;;;;;0.70;0.47;;;17.70;1.00;;;;;;5137023;27;20543;-72
2022/07/07 00:35:27;;;;;;;0.60;0.40;;;17.70;1.00;;;;;;5136646;27;20843;-73
2022/07/07 00:37:54;;;;;;;2.40;0.40;;;17.70;1.00;;;;;;5137791;27;20511;-71
2022/07/07 00:40:22;;;;;;;0.80;0.40;;;17.70;1.00;;;;;;5137786;27;20487;-71
2022/07/07 00:42:49;;;;;;;0.57;0.40;;;17.70;1.00;;;;;;5137497;27;20455;-72
2022/07/07 00:45:17;;;;;;;0.57;0.40;;;17.70;1.00;;;;;;5137737;27;20482;-72
2022/07/07 00:47:44;;;;;;;0.60;0.40;;;17.60;1.00;;;;;;5139161;27;20458;-72
2022/07/07 00:50:11;;;;;;;0.93;0.50;;;17.60;1.00;;;;;;5138060;27;20572;-73
2022/07/07 00:52:38;;;;;;;0.50;0.40;;;17.60;1.00;;;;;;5136818;27;20503;-74
2022/07/07 00:55:08;;;;;;;0.60;0.33;;;17.60;1.00;;;;;;5137204;28;20985;-72
2022/07/07 00:57:36;;;;;;;0.70;0.50;;;17.60;1.00;;;;;;5137475;28;20500;-72
2022/07/07 01:00:06;;;;;;;2.10;0.50;;;17.50;1.00;;;;;;5137095;27;20526;-72
2022/07/07 01:02:34;;;;;;;0.60;0.40;;;17.50;1.00;;;;;;5137021;27;20488;-71
2022/07/07 01:05:04;;;;;;;0.53;0.40;;;17.50;1.00;;;;;;5136867;27;20919;-73
2022/07/07 01:07:32;;;;;;;0.57;0.40;;;17.50;1.00;;;;;;5136721;27;20513;-72
2022/07/07 01:10:00;;;;;;;0.97;0.50;;;17.40;1.00;;;;;;5136980;27;20478;-72
2022/07/07 01:12:33;;;;;;;1.67;0.40;;;17.40;1.00;;;;;;5135811;27;20491;-74
2022/07/07 01:15:00;;;;;;;1.23;0.43;;;17.40;1.00;;;;;;5138578;27;20563;-73
2022/07/07 01:17:26;;;;;;;0.50;0.40;;;17.40;1.00;;;;;;5140510;27;20939;-73
2022/07/07 01:19:55;;;;;;;0.70;0.50;;;17.50;1.00;;;;;;5140104;27;20540;-72
2022/07/07 01:22:25;;;;;;;0.70;0.50;;;17.50;1.00;;;;;;5139982;27;20546;-72
2022/07/07 01:24:53;;;;;;;0.70;0.47;;;17.50;1.00;;;;;;5140333;27;20475;-72
2022/07/07 01:27:21;;;;;;;0.50;0.40;;;17.40;1.00;;;;;;5140611;27;20898;-72
2022/07/07 01:29:49;;;;;;;2.50;0.80;;;17.40;1.00;;;;;;5140525;27;20488;-72
2022/07/07 01:32:16;;;;;;;1.30;0.40;;;17.30;1.00;;;;;;5139679;27;20874;-72
2022/07/07 01:34:45;;;;;;;0.80;0.40;;;17.30;1.00;;;;;;5139837;27;20536;-72
2022/07/07 01:37:13;;;;;;;0.50;0.40;;;17.50;1.00;;;;;;5140723;27;20456;-72
2022/07/07 01:39:40;;;;;;;0.50;0.30;;;17.40;1.00;;;;;;5139943;27;20946;-72
2022/07/07 01:42:10;;;;;;;1.03;0.40;;;17.50;1.00;;;;;;5139471;27;20910;-72
2022/07/07 01:44:39;;;;;;;0.70;0.40;;;17.40;1.00;;;;;;5139613;27;20742;-73
2022/07/07 01:47:07;;;;;;;0.70;0.40;;;17.30;1.00;;;;;;5140089;27;20475;-72
2022/07/07 01:49:34;;;;;;;1.70;0.40;;;17.30;1.00;;;;;;5139677;27;20871;-73
2022/07/07 01:52:03;;;;;;;0.60;0.40;;;17.20;1.00;;;;;;5139586;27;20455;-73
2022/07/07 01:54:31;;;;;;;0.60;0.50;;;17.30;1.00;;;;;;5139541;27;20442;-72
2022/07/07 01:56:58;;;;;;;0.57;0.40;;;17.40;1.00;;;;;;5139580;27;20447;-73
2022/07/07 01:59:26;;;;;;;0.60;0.40;;;17.50;1.00;;;;;;5139403;27;20536;-73
2022/07/07 02:01:53;;;;;;;1.00;0.40;;;17.50;1.00;;;;;;5138074;27;20558;-71
2022/07/07 02:04:20;;;;;;;1.17;0.47;;;17.30;1.00;;;;;;5139417;27;20532;-72
2022/07/07 02:06:47;;;;;;;0.60;0.40;;;17.30;1.00;;;;;;5139557;27;20458;-72
2022/07/07 02:09:14;;;;;;;0.73;0.40;;;17.30;1.00;;;;;;5139569;27;20912;-72
2022/07/07 02:11:41;;;;;;;0.73;0.47;;;17.30;1.00;;;;;;5139428;27;20822;-72
2022/07/07 02:14:08;;;;;;;0.80;0.40;;;17.20;1.00;;;;;;5139061;27;20439;-72
2022/07/07 02:16:37;;;;;;;0.60;0.40;;;17.00;1.00;;;;;;5139269;27;20570;-72
2022/07/07 02:19:06;;;;;;;0.60;0.40;;;16.90;1.00;;;;;;5138966;27;20448;-71
2022/07/07 02:21:34;;;;;;;1.00;0.40;;;16.80;1.00;;;;;;5138948;27;20458;-72
2022/07/07 02:24:02;;;;;;;0.80;0.40;;;16.80;1.00;;;;;;5139122;27;20491;-72
2022/07/07 02:26:29;;;;;;;0.50;0.40;;;16.80;1.00;;;;;;5138307;27;20484;-72
2022/07/07 02:28:56;;;;;;;0.53;0.40;;;16.90;1.00;;;;;;5139279;27;20448;-72
2022/07/07 02:31:23;;;;;;;0.60;0.40;;;16.80;1.00;;;;;;5138541;27;20463;-72
2022/07/07 02:33:51;;;;;;;0.40;0.30;;;16.70;1.00;;;;;;5138618;27;20629;-71
2022/07/07 02:36:19;;;;;;;0.83;0.40;;;16.70;1.00;;;;;;5138431;27;20886;-72
2022/07/07 02:38:48;;;;;;;0.57;0.40;;;16.70;1.00;;;;;;5139053;27;20909;-72
2022/07/07 02:41:14;;;;;;;0.80;0.50;;;16.70;1.00;;;;;;5138836;27;20709;-73
2022/07/07 02:43:41;;;;;;;0.70;0.40;;;16.70;1.00;;;;;;5138722;27;20947;-72
2022/07/07 02:46:08;;;;;;;0.93;0.30;;;16.60;1.00;;;;;;5138602;27;20870;-71
2022/07/07 02:48:35;;;;;;;2.07;0.43;;;16.50;1.00;;;;;;5138900;27;20567;-71
2022/07/07 02:51:04;;;;;;;0.50;0.37;;;16.60;1.00;;;;;;5138793;27;20496;-71
2022/07/07 02:53:31;;;;;;;0.93;0.40;;;16.70;1.00;;;;;;5137776;27;20973;-72
2022/07/07 02:55:57;;;;;;;1.53;0.37;;;16.70;1.00;;;;;;5137115;27;20787;-72
2022/07/07 02:58:25;;;;;;;1.03;0.40;;;16.70;1.00;;;;;;5137425;27;20527;-72
2022/07/07 03:00:54;;;;;;;0.93;0.47;;;16.80;1.00;;;;;;5137121;27;20467;-73
2022/07/07 03:03:21;;;;;;;0.50;0.40;;;16.80;1.00;;;;;;5136515;27;20452;-72
2022/07/07 03:05:48;;;;;;;0.80;0.47;;;16.90;1.00;;;;;;5136130;27;20542;-71
2022/07/07 03:08:16;;;;;;;0.77;0.40;;;16.90;1.00;;;;;;5136210;27;20538;-72
2022/07/07 03:10:46;;;;;;;0.60;0.40;;;16.80;1.00;;;;;;5137265;27;20955;-73
2022/07/07 03:13:13;;;;;;;2.40;0.40;;;16.80;1.00;;;;;;5137474;27;20538;-72
2022/07/07 03:15:40;;;;;;;0.70;0.40;;;16.70;1.00;;;;;;5137545;27;20544;-72
2022/07/07 03:18:07;;;;;;;0.63;0.40;;;16.60;1.00;;;;;;5138437;27;20530;-72
2022/07/07 03:20:35;;;;;;;1.43;0.30;;;16.60;1.00;;;;;;5137062;27;20534;-72
2022/07/07 03:23:02;;;;;;;0.60;0.30;;;16.60;1.00;;;;;;5136825;27;20488;-73
2022/07/07 03:25:30;;;;;;;0.60;0.40;;;16.70;1.00;;;;;;5136841;27;20831;-72
2022/07/07 03:27:57;;;;;;;0.50;0.40;;;16.70;1.00;;;;;;5137016;27;20927;-72
2022/07/07 03:30:24;;;;;;;0.50;0.40;;;16.70;1.00;;;;;;5136600;27;20629;-72
2022/07/07 03:32:51;;;;;;;0.57;0.43;;;16.60;1.00;;;;;;5137210;27;20817;-72
2022/07/07 03:35:18;;;;;;;0.60;0.40;;;16.60;1.00;;;;;;5137656;27;20479;-72
2022/07/07 03:37:45;;;;;;;0.80;0.40;;;16.50;1.00;;;;;;5137826;27;20546;-72
2022/07/07 03:40:13;;;;;;;0.60;0.50;;;16.40;1.00;;;;;;5137666;27;20534;-73
2022/07/07 03:42:41;;;;;;;0.90;0.40;;;16.50;1.00;;;;;;5136348;27;20603;-73
2022/07/07 03:45:09;;;;;;;1.27;0.40;;;16.70;1.00;;;;;;5136008;27;20542;-72
2022/07/07 03:47:36;;;;;;;0.60;0.30;;;16.70;1.00;;;;;;5136123;27;20452;-73
2022/07/07 03:50:03;;;;;;;0.60;0.40;;;16.70;1.00;;;;;;5134461;27;20796;-73
2022/07/07 03:52:30;;;;;;;0.47;0.33;;;16.60;1.00;;;;;;5132823;27;20815;-72
2022/07/07 03:54:57;;;;;;;0.50;0.40;;;16.70;1.00;;;;;;5134517;27;20837;-72
2022/07/07 03:57:24;;;;;;;1.23;0.40;;;16.80;1.00;;;;;;5134421;27;20582;-73
2022/07/07 03:59:52;;;;;;;0.60;0.30;;;16.90;1.00;;;;;;5136261;27;20544;-73
2022/07/07 04:02:19;;;;;;;0.60;0.40;;;16.90;1.00;;;;;;5134793;27;20894;-73
2022/07/07 04:04:46;;;;;;;0.60;0.40;;;16.90;1.00;;;;;;5134905;27;20833;-73
2022/07/07 04:07:13;;;;;;;6.80;0.43;;;16.90;1.00;;;;;;5136047;27;20444;-72
2022/07/07 04:09:40;;;;;;;0.50;0.40;;;17.00;1.00;;;;;;5136838;27;20538;-72
2022/07/07 04:12:08;;;;;;;0.83;0.40;;;17.00;1.00;;;;;;5137079;27;20485;-72
2022/07/07 04:14:35;;;;;;;1.77;0.40;;;17.00;1.00;;;;;;5136838;27;20447;-72
2022/07/07 04:17:04;;;;;;;0.70;0.40;;;17.10;1.00;;;;;;5137204;27;20526;-73
2022/07/07 04:19:31;;;;;;;0.50;0.40;;;17.10;1.00;;;;;;5136651;28;20448;-73
2022/07/07 04:21:58;;;;;;;1.50;0.40;;;17.10;1.00;;;;;;5136982;28;20512;-72
2022/07/07 04:24:24;;;;;;;0.60;0.40;;;17.20;1.00;;;;;;5135490;28;20486;-73
2022/07/07 04:26:51;;;;;;;0.50;0.30;;;17.20;1.00;;;;;;5131812;28;20911;-72
2022/07/07 04:29:18;;;;;;;1.03;0.50;;;17.20;1.00;;;;;;5114316;28;20826;-73
2022/07/07 04:31:45;;;;;;;0.60;0.40;;;17.20;1.00;;;;;;5115852;28;20540;-73
2022/07/07 04:34:17;;;;;;;0.60;0.40;;;17.30;1.00;;;;;;5116105;28;20501;-72
2022/07/07 04:36:44;;;;;;;0.50;0.37;;;17.30;1.00;;;;;;5107152;28;20587;-72
2022/07/07 04:39:11;;;;;;;0.57;0.40;;;17.40;1.00;;;;;;5095943;28;20551;-72
2022/07/07 04:41:38;;;;;;;1.10;0.40;;;17.40;1.00;;;;;;5096120;28;20470;-72
2022/07/07 04:44:06;;;;;;;0.50;0.40;;;17.40;1.00;;;;;;5094546;28;20496;-72
2022/07/07 04:46:33;;;;;;;0.80;0.30;;;17.40;1.00;;;;;;5092039;28;20568;-72
2022/07/07 04:49:00;;;;;;;0.50;0.40;;;17.50;1.00;;;;;;5109684;28;20445;-73
2022/07/07 04:51:28;;;;;;;0.80;0.50;;;17.50;1.00;;;;;;5117159;28;20509;-73
2022/07/07 04:53:56;;;;;;;0.50;0.30;;;17.50;1.00;;;;;;5130693;27;20483;-73
2022/07/07 04:56:23;;;;;;;0.70;0.40;;;17.40;1.00;;;;;;5136753;27;20575;-72
2022/07/07 04:58:50;;;;;;;0.60;0.40;;;17.40;1.00;;;;;;5137540;27;20554;-72
2022/07/07 05:01:17;;;;;;;0.50;0.30;;;17.30;1.00;;;;;;5140610;27;20945;-73
2022/07/07 05:03:43;;;;;;;0.50;0.40;;;17.30;1.00;;;;;;5140107;27;20534;-72
2022/07/07 05:06:11;;;;;;;0.50;0.30;;;17.30;1.00;;;;;;5138337;27;20861;-73
2022/07/07 05:08:39;;;;;;;0.50;0.40;;;17.40;1.00;;;;;;5139492;27;20508;-72
2022/07/07 05:11:06;;;;;;;0.87;0.33;;;17.40;1.00;;;;;;5136809;27;20455;-73
2022/07/07 05:13:33;;;;;;;0.70;0.30;;;17.40;1.00;;;;;;5136626;27;20542;-72
2022/07/07 05:16:00;;;;;;;0.93;0.43;;;17.40;1.00;;;;;;5140085;27;21028;-73
2022/07/07 05:18:29;;;;;;;0.80;0.40;;;17.50;1.00;;;;;;5139648;27;20467;-72
2022/07/07 05:20:57;;;;;;;0.60;0.40;;;17.50;1.00;;;;;;5136520;27;20558;-72
2022/07/07 05:23:25;;;;;;;1.23;0.50;;;17.50;1.00;;;;;;5137791;27;20959;-72
2022/07/07 05:25:54;;;;;;;0.50;0.40;;;17.50;1.00;;;;;;5133780;27;23356;-72
2022/07/07 05:28:21;;;;;;;0.90;0.40;;;17.50;1.00;;;;;;5118871;28;20804;-71
2022/07/07 05:30:48;;;;;;;0.77;0.50;;;17.50;1.00;;;;;;5118194;28;20482;-71
2022/07/07 05:33:15;;;;;;;0.50;0.30;;;17.40;1.00;;;;;;5117915;28;20935;-72
2022/07/07 05:35:42;;;;;;;0.50;0.40;;;17.40;1.00;;;;;;5121945;27;20535;-71
2022/07/07 05:38:09;;;;;;;0.50;0.30;;;17.40;1.00;;;;;;5136415;27;20922;-73
2022/07/07 05:40:36;;;;;;;5.50;0.50;;;17.40;1.00;;;;;;5138121;27;20479;-72
2022/07/07 05:43:04;;;;;;;0.63;0.40;;;17.40;1.00;;;;;;5137439;27;20476;-72
2022/07/07 05:45:31;;;;;;;1.53;0.30;;;17.40;1.00;;;;;;5135395;27;20542;-72
2022/07/07 05:47:58;;;;;;;0.50;0.37;;;17.50;1.00;;;;;;5136462;27;20496;-72
2022/07/07 05:50:25;;;;;;;0.70;0.50;;;17.60;1.00;;;;;;5136233;27;20912;-72
2022/07/07 05:52:52;;;;;;;1.00;0.40;;;17.70;1.00;;;;;;5134578;27;20472;-73
2022/07/07 05:55:19;;;;;;;0.60;0.40;;;17.80;1.00;;;;;;5124392;27;20458;-71
2022/07/07 05:57:46;;;;;;;0.50;0.40;;;18.00;1.00;;;;;;5136025;27;20515;-72
2022/07/07 06:00:16;;;;;;;1.67;0.40;;;18.10;1.00;;;;;;5135064;27;20558;-72
2022/07/07 06:02:43;;;;;;;0.97;0.40;;;18.10;1.00;;;;;;5137371;27;20887;-72
2022/07/07 06:05:10;;;;;;;0.97;0.40;;;18.20;1.00;;;;;;5137458;27;20531;-71
2022/07/07 06:07:37;;;;;;;0.70;0.40;;;18.40;1.00;;;;;;5136956;27;20531;-72
2022/07/07 06:10:06;;;;;;;0.87;0.40;;;18.60;1.00;;;;;;5136713;27;20505;-73
2022/07/07 06:12:34;;;;;;;1.00;0.43;;;18.70;1.00;;;;;;5138758;27;20533;-74
2022/07/07 06:15:03;;;;;;;1.97;0.60;;;18.90;1.00;;;;;;5138630;27;20448;-76
2022/07/07 06:17:31;;;;;;;0.60;0.43;;;19.20;1.00;;;;;;5136252;27;20472;-74
2022/07/07 06:19:59;;;;;;;0.50;0.30;;;19.40;1.00;;;;;;5137907;27;20483;-76
2022/07/07 06:22:26;;;;;;;1.27;0.40;;;19.60;1.00;;;;;;5135456;27;20448;-77
2022/07/07 06:24:53;;;;;;;0.60;0.30;;;19.60;1.00;;;;;;5137820;27;20444;-77
2022/07/07 06:27:21;;;;;;;1.63;0.47;;;19.60;1.00;;;;;;5137192;27;20525;-75
2022/07/07 06:29:50;;;;;;;0.70;0.40;;;19.60;1.00;;;;;;5137327;27;20504;-75
2022/07/07 06:32:17;;;;;;;0.60;0.50;;;19.50;1.00;;;;;;5135423;27;20447;-74
2022/07/07 06:34:46;;;;;;;1.60;0.50;;;19.50;1.00;;;;;;5137296;27;20448;-74
2022/07/07 06:37:13;;;;;;;0.50;0.30;;;19.50;1.00;;;;;;5136074;27;20479;-74
2022/07/07 06:39:40;;;;;;;1.53;0.30;;;19.70;1.00;;;;;;5137289;27;20489;-75
2022/07/07 06:42:09;;;;;;;0.87;0.40;;;19.90;1.00;;;;;;5136551;27;21110;-72
2022/07/07 06:44:36;;;;;;;1.87;0.50;;;20.10;1.00;;;;;;5136062;27;20448;-74
2022/07/07 06:47:05;;;;;;;3.50;0.40;;;20.30;1.00;;;;;;5134843;27;20447;-78
2022/07/07 06:49:32;;;;;;;0.97;0.30;;;20.40;1.00;;;;;;5137141;27;20541;-76
2022/07/07 06:52:04;;;;;;;0.67;0.40;;;20.40;1.00;;;;;;5133055;27;20504;-75
2022/07/07 06:54:30;;;;;;;0.63;0.40;;;20.50;1.00;;;;;;5134504;27;21138;-76
2022/07/07 06:56:57;;;;;;;0.60;0.50;;;20.40;1.00;;;;;;5135238;27;20533;-75
2022/07/07 06:59:25;;;;;;;0.80;0.40;;;20.30;1.00;;;;;;5134492;27;20476;-77
2022/07/07 07:01:52;;;;;;;0.70;0.40;;;20.60;1.00;;;;;;5135467;27;20546;-78
2022/07/07 07:04:19;;;;;;;2.07;0.50;;;20.90;1.00;;;;;;5137250;27;20494;-77
2022/07/07 07:06:46;;;;;;;1.17;0.40;;;21.00;1.00;;;;;;5139022;27;20455;-76
2022/07/07 07:09:15;;;;;;;2.60;0.53;;;21.00;1.00;;;;;;5137451;27;20483;-76
2022/07/07 07:11:42;;;;;;;0.50;0.40;;;21.30;1.00;;;;;;5137362;27;20456;-76
2022/07/07 07:14:08;;;;;;;1.97;0.40;;;21.40;1.00;;;;;;5135659;27;20540;-75
2022/07/07 07:16:35;;;;;;;0.77;0.50;;;21.50;1.00;;;;;;5136827;27;20896;-75
2022/07/07 07:19:03;;;;;;;0.60;0.40;;;21.70;1.00;;;;;;5136557;27;20440;-74
2022/07/07 07:21:30;;;;;;;0.90;0.40;;;21.60;1.00;;;;;;5138837;27;20458;-77
2022/07/07 07:23:57;;;;;;;0.83;0.40;;;21.40;1.00;;;;;;5138637;27;20452;-80
2022/07/07 07:26:26;;;;;;;0.63;0.37;;;21.50;1.00;;;;;;5138144;27;20448;-77
2022/07/07 07:28:55;;;;;;;0.67;0.40;;;21.50;1.00;;;;;;5136936;27;20550;-79
2022/07/07 07:31:23;;;;;;;0.60;0.50;;;21.50;1.00;;;;;;5135790;27;20856;-78
2022/07/07 07:33:50;;;;;;;1.23;0.43;;;21.40;1.00;;;;;;5135018;27;20502;-78
2022/07/07 07:36:18;;;;;;;0.60;0.47;;;21.40;1.00;;;;;;5130588;27;20749;-77
2022/07/07 07:38:45;;;;;;;1.43;0.57;;;21.30;1.00;;;;;;5133239;27;20818;-76
2022/07/07 07:41:13;;;;;;;1.30;0.70;;;21.20;1.00;;;;;;5137023;27;20480;-78
2022/07/07 07:43:41;;;;;;;0.70;0.40;;;21.30;1.00;;;;;;5134701;27;20500;-78
2022/07/07 07:46:08;;;;;;;1.23;0.40;;;21.60;1.00;;;;;;5134581;27;20483;-78
2022/07/07 07:48:35;;;;;;;0.90;0.40;;;21.80;1.00;;;;;;5137570;27;20476;-78
2022/07/07 07:51:02;;;;;;;0.50;0.40;;;21.70;1.00;;;;;;5135871;27;20440;-77
2022/07/07 07:53:29;;;;;;;0.90;0.43;;;21.70;1.00;;;;;;5134045;27;20495;-77
2022/07/07 07:55:56;;;;;;;1.80;0.40;;;21.60;1.00;;;;;;5136343;27;20490;-77
2022/07/07 07:58:23;;;;;;;0.80;0.60;;;21.40;1.00;;;;;;5135645;27;20453;-79
2022/07/07 08:00:51;;;;;;;0.60;0.40;;;21.40;1.00;;;;;;5136197;27;20280;-79
2022/07/07 08:03:20;;;;;;;0.60;0.40;;;21.30;1.00;;;;;;5131865;27;20487;-78
2022/07/07 08:05:47;;;;;;;0.53;0.40;;;21.30;1.00;;;;;;5134619;27;20451;-76
2022/07/07 08:08:15;;;;;;;1.47;0.60;;;21.20;1.00;;;;;;5136040;27;20815;-76
2022/07/07 08:10:42;;;;;;;0.80;0.53;;;21.20;1.00;;;;;;5133964;27;20440;-77
2022/07/07 08:13:09;;;;;;;0.73;0.50;;;21.10;1.00;;;;;;5135551;27;20448;-77
2022/07/07 08:15:36;;;;;;;0.63;0.50;;;21.10;1.00;;;;;;5120819;27;20882;-78
2022/07/07 08:18:07;;;;;;;2.73;0.50;;;21.10;1.00;;;;;;5135860;27;20483;-77
2022/07/07 08:20:34;;;;;;;0.90;0.60;;;21.10;1.00;;;;;;5135119;27;20448;-76
2022/07/07 08:23:01;;;;;;;1.50;0.70;;;21.20;1.00;;;;;;5132829;27;20444;-75
2022/07/07 08:25:28;;;;;;;2.80;0.60;;;21.30;1.00;;;;;;5135538;28;20444;-74
2022/07/07 08:27:55;;;;;;;0.80;0.50;;;21.50;1.00;;;;;;5134955;28;20962;-73
2022/07/07 08:30:22;;;;;;;0.80;0.60;;;21.60;1.00;;;;;;5135179;27;20448;-75
2022/07/07 08:32:49;;;;;;;1.00;0.60;;;21.60;1.00;;;;;;5135939;27;20484;-77
2022/07/07 08:35:18;;;;;;;0.67;0.50;;;21.60;1.00;;;;;;5136692;27;20451;-74
2022/07/07 08:37:45;;;;;;;2.83;0.50;;;21.40;1.00;;;;;;5135565;27;20860;-75
2022/07/07 08:40:12;;;;;;;0.90;0.50;;;21.30;1.00;;;;;;5137039;27;20453;-75
2022/07/07 08:42:40;;;;;;;1.83;0.80;;;21.40;1.00;;;;;;5135793;27;20451;-77
2022/07/07 08:45:08;;;;;;;1.40;0.50;;;21.20;1.00;;;;;;5136905;28;20501;-75
2022/07/07 08:47:35;;;;;;;0.87;0.60;;;21.20;1.00;;;;;;5134560;28;20444;-76
2022/07/07 08:50:03;;;;;;;0.90;0.60;;;21.20;1.00;;;;;;5136307;28;20513;-74
2022/07/07 08:52:35;;;;;;;0.83;0.60;;;21.30;1.00;;;;;;5134863;28;21216;-75
2022/07/07 08:55:05;;;;;;;1.20;0.93;;;21.40;1.00;;;;;;5135333;28;20450;-74
2022/07/07 08:57:33;;;;;;;0.80;0.70;;;21.40;1.00;;;;;;5134213;28;20532;-75
2022/07/07 09:00:00;;;;;;;0.90;0.80;;;21.40;1.00;;;;;;5133403;28;20501;-73
2022/07/07 09:02:27;;;;;;;1.27;0.67;;;21.50;1.00;;;;;;5134002;28;20505;-74
2022/07/07 09:04:54;;;;;;;3.33;0.77;;;21.60;1.00;;;;;;5135651;28;20435;-74
2022/07/07 09:07:28;;;;;;;1.30;0.60;;;21.60;1.00;;;;;;5135387;27;20512;-75
2022/07/07 09:09:58;;;;;;;0.80;0.67;;;21.70;1.00;;;;;;5135828;27;20801;-75
2022/07/07 09:12:25;;;;;;;1.10;0.70;;;22.10;1.00;;;;;;5133298;28;20443;-74
2022/07/07 09:14:53;;;;;;;1.20;0.70;;;22.30;1.00;;;;;;5135177;27;20486;-73
2022/07/07 09:17:28;;;;;;;1.33;0.80;;;22.40;1.00;;;;;;5135148;27;20476;-76
2022/07/07 09:20:00;;;;;;;1.40;0.90;;;22.70;1.00;;;;;;5136559;27;20473;-74
2022/07/07 09:22:47;;;;;;;0.73;0.60;;;22.50;1.00;;;;;;5142329;27;20459;-75
2022/07/07 09:25:18;;;;;;;1.87;0.63;;;22.40;1.00;;;;;;5133517;27;20448;-77
2022/07/07 09:27:55;;;;;;;0.73;0.60;;;22.40;1.00;;;;;;5133086;27;20538;-74
2022/07/07 09:30:35;;;;;;;0.63;0.50;;;22.40;1.00;;;;;;5116507;28;20443;-76
2022/07/07 09:33:05;;;;;;;2.97;0.50;;;22.40;1.00;;;;;;5134123;27;20443;-75
2022/07/07 09:38:22;;;;;;;0.70;0.40;;;22.10;1.00;;;;;;5137842;27;20478;-76
2022/07/07 09:40:58;;;;;;;1.97;0.67;;;21.90;1.00;;;;;;5136634;27;20519;-78
2022/07/07 09:43:25;;;;;;;2.20;0.90;;;21.80;1.00;;;;;;5138619;27;20543;-77
2022/07/07 09:46:23;;;;;;;1.63;0.50;;;21.80;1.00;;;;;;5137263;27;20459;-76
2022/07/07 09:48:54;;;;;;;0.87;0.40;;;21.50;1.00;;;;;;5054756;28;20448;-77
2022/07/07 09:51:23;;;;;;;0.50;0.40;;;21.40;1.00;;;;;;5124991;27;21040;-76
2022/07/07 09:54:05;;;;;;;0.93;0.50;;;21.40;1.00;;;;;;5144972;27;20503;-77
2022/07/07 09:56:35;;;;;;;0.73;0.57;;;21.40;1.00;;;;;;5137670;27;20452;-76
2022/07/07 09:59:06;;;;;;;1.13;0.40;;;21.40;1.00;;;;;;5137899;27;20472;-77
2022/07/07 10:01:36;;;;;;;0.80;0.53;;;21.40;1.00;;;;;;5136579;27;20807;-78
2022/07/07 10:04:05;;;;;;;0.50;0.40;;;21.60;1.00;;;;;;5119772;27;20871;-77
2022/07/07 10:06:34;;;;;;;0.80;0.50;;;21.70;1.00;;;;;;5138637;27;20490;-76
2022/07/07 10:09:04;;;;;;;0.60;0.40;;;21.70;1.00;;;;;;5139507;27;20831;-75
2022/07/07 10:11:38;;;;;;;0.60;0.30;;;21.70;1.00;;;;;;5138284;27;20466;-76
2022/07/07 10:14:11;;;;;;;0.60;0.43;;;21.90;1.00;;;;;;5138116;27;20482;-76
2022/07/07 10:16:38;;;;;;;0.50;0.40;;;21.90;1.00;;;;;;5138327;27;20463;-77
2022/07/07 10:19:06;;;;;;;0.80;0.50;;;22.20;1.00;;;;;;5138211;27;20567;-76
2022/07/07 10:21:33;;;;;;;0.50;0.40;;;22.30;1.00;;;;;;5138346;27;20456;-75
2022/07/07 10:24:01;;;;;;;0.50;0.40;;;22.40;1.00;;;;;;5135421;27;20919;-76
2022/07/07 10:26:40;;;;;;;2.30;0.60;;;22.20;1.00;;;;;;5137221;27;20512;-76
2022/07/07 10:29:09;;;;;;;0.50;0.40;;;22.40;1.00;;;;;;5137776;27;21082;-75
2022/07/07 10:31:37;;;;;;;0.60;0.50;;;22.30;1.00;;;;;;5136550;27;20463;-77
2022/07/07 10:34:06;;;;;;;0.80;0.50;;;22.20;1.00;;;;;;5138130;27;20732;-75
2022/07/07 10:37:02;;;;;;;0.93;0.57;;;22.40;1.00;;;;;;5136017;27;20448;-74
2022/07/07 10:39:33;;;;;;;0.87;0.50;;;22.50;1.00;;;;;;5133491;27;20939;-75
2022/07/07 10:42:06;;;;;;;0.70;0.50;;;22.30;1.00;;;;;;5134090;27;20456;-74
2022/07/07 10:44:35;;;;;;;0.50;0.50;;;22.30;1.00;;;;;;5134830;27;20497;-75
2022/07/07 10:47:05;;;;;;;0.80;0.50;;;22.60;1.00;;;;;;5136372;27;20456;-74
2022/07/07 10:49:40;;;;;;;0.70;0.40;;;22.50;1.00;;;;;;5137901;27;20447;-75
2022/07/07 10:52:14;;;;;;;0.87;0.50;;;22.50;1.00;;;;;;5138384;27;20458;-76
2022/07/07 10:54:43;;;;;;;0.50;0.40;;;22.50;1.00;;;;;;5139431;27;20480;-73
2022/07/07 10:57:14;;;;;;;0.70;0.40;;;22.50;1.00;;;;;;5137812;27;21072;-76
2022/07/07 11:00:24;;;;;;;0.50;0.40;;;22.20;1.00;;;;;;5138032;27;20503;-76
2022/07/07 11:03:08;;;;;;;0.57;0.33;;;22.00;1.00;;;;;;5137205;27;20428;-75
2022/07/07 11:05:36;;;;;;;0.80;0.50;;;21.90;1.00;;;;;;5139667;27;20447;-74
2022/07/07 11:08:21;;;;;;;0.60;0.40;;;21.70;1.00;;;;;;5137783;27;20448;-75
2022/07/07 11:11:02;;;;;;;0.60;0.50;;;21.70;1.00;;;;;;5137795;27;20447;-76
2022/07/07 11:13:37;;;;;;;0.63;0.50;;;21.70;1.00;;;;;;5136627;27;21025;-75
2022/07/07 11:16:16;;;;;;;0.60;0.40;;;21.80;1.00;;;;;;5136870;27;20574;-75
2022/07/07 11:18:47;;;;;;;1.30;0.60;;;21.60;1.00;;;;;;5131267;27;20528;-76
2022/07/07 11:21:14;;;;;;;0.80;0.50;;;21.80;1.00;;;;;;5159547;27;20488;-77
2022/07/07 11:23:52;;;;;;;0.60;0.40;;;21.90;1.00;;;;;;5146438;27;20440;-75
2022/07/07 11:26:22;;;;;;;0.80;0.40;;;22.00;1.00;;;;;;5140797;27;20478;-76
2022/07/07 11:28:54;;;;;;;0.80;0.30;;;22.00;1.00;;;;;;5128939;27;21151;-75
2022/07/07 11:31:22;;;;;;;0.87;0.40;;;21.70;1.00;;;;;;5132525;27;20526;-75
2022/07/07 11:33:54;;;;;;;1.30;0.43;;;21.60;1.00;;;;;;5135065;27;20876;-76
2022/07/07 11:36:23;;;;;;;0.50;0.30;;;21.70;1.00;;;;;;5141260;27;20744;-81
2022/07/07 11:38:53;;;;;;;4.23;0.40;;;21.80;1.00;;;;;;5141426;27;21794;-80
2022/07/07 11:41:22;;;;;;;0.70;0.50;;;22.00;1.00;;;;;;5136556;27;20509;-81
2022/07/07 11:43:59;;;;;;;0.70;0.50;;;22.10;1.00;;;;;;5137128;27;20789;-81
2022/07/07 11:46:26;;;;;;;0.60;0.30;;;21.90;1.00;;;;;;5139459;27;20447;-82
2022/07/07 11:48:53;;;;;;;0.70;0.30;;;21.70;1.00;;;;;;5138180;27;20444;-81
2022/07/07 11:51:36;;;;;;;0.60;0.40;;;21.60;1.00;;;;;;5139281;27;20469;-80
2022/07/07 11:54:03;;;;;;;0.90;0.40;;;21.70;1.00;;;;;;5138844;27;20486;-80
2022/07/07 11:56:33;;;;;;;0.60;0.40;;;21.80;1.00;;;;;;5137636;27;20528;-81
2022/07/07 11:59:03;;;;;;;0.90;0.40;;;21.80;1.00;;;;;;5135100;27;20480;-81
2022/07/07 12:01:35;;;;;;;0.70;0.50;;;22.00;1.00;;;;;;5135559;27;20791;-77
2022/07/07 12:04:13;;;;;;;0.60;0.50;;;22.10;1.00;;;;;;5114997;28;20437;-74
2022/07/07 12:06:39;;;;;;;0.90;0.40;;;22.00;1.00;;;;;;5119799;27;20572;-74
2022/07/07 12:09:06;;;;;;;0.60;0.50;;;21.80;1.00;;;;;;5133036;27;21102;-75
2022/07/07 12:11:37;;;;;;;0.97;0.50;;;21.70;1.00;;;;;;5131810;27;20496;-75
2022/07/07 12:14:07;;;;;;;3.20;0.40;;;21.80;1.00;;;;;;5133718;27;20892;-75
2022/07/07 12:16:42;;;;;;;0.90;0.60;;;21.80;1.00;;;;;;5131829;27;20756;-75
2022/07/07 12:19:09;;;;;;;4.80;0.80;;;21.80;1.00;;;;;;5133039;27;20490;-74
2022/07/07 12:21:43;;;;;;;0.90;0.60;;;21.90;1.00;;;;;;5133465;27;20455;-73
2022/07/07 12:24:13;;;;;;;1.30;0.50;;;21.90;1.00;;;;;;5130783;28;20446;-73
2022/07/07 12:26:44;;;;;;;0.83;0.50;;;21.70;1.00;;;;;;5133085;27;20487;-74
2022/07/07 12:29:13;;;;;;;0.70;0.50;;;21.60;1.00;;;;;;5133104;27;20440;-74
2022/07/07 12:31:39;;;;;;;5.57;2.97;;;21.70;1.00;;;;;;5132321;27;20449;-73
2022/07/07 12:34:10;;;;;;;1.17;0.70;;;21.70;1.00;;;;;;5135541;27;20559;-73
2022/07/07 12:36:39;;;;;;;0.63;0.50;;;21.70;1.00;;;;;;5133982;27;20929;-73
2022/07/07 12:39:06;;;;;;;0.60;0.50;;;21.90;1.00;;;;;;5135999;28;20942;-74
2022/07/07 12:41:35;;;;;;;0.70;0.50;;;22.00;1.00;;;;;;5134094;28;20455;-73
2022/07/07 12:44:15;;;;;;;1.53;0.60;;;21.80;1.00;;;;;;5133011;27;20444;-73
2022/07/07 12:46:42;;;;;;;3.10;2.00;;;21.80;1.00;;;;;;5135592;27;20455;-73
2022/07/07 12:49:09;;;;;;;0.70;0.57;;;21.70;1.00;;;;;;5135811;27;20471;-75
2022/07/07 12:51:38;;;;;;;8.73;0.60;;;21.80;1.00;;;;;;5127968;27;20456;-74
2022/07/07 12:54:05;;;;;;;2.63;0.70;;;21.90;1.00;;;;;;5134554;27;20945;-74
2022/07/07 12:56:34;;;;;;;0.90;0.60;;;21.90;1.00;;;;;;5135575;27;20832;-73
2022/07/07 12:59:01;;;;;;;0.53;0.50;;;21.80;1.00;;;;;;5133450;27;20480;-74
2022/07/07 13:01:30;;;;;;;2.20;0.60;;;21.70;1.00;;;;;;5125640;27;20960;-75
2022/07/07 13:03:59;;;;;;;1.10;0.50;;;21.50;1.00;;;;;;5127985;28;20454;-75
2022/07/07 13:06:26;;;;;;;0.60;0.40;;;21.60;1.00;;;;;;5135843;27;20547;-73
2022/07/07 13:08:54;;;;;;;2.27;0.50;;;21.70;1.00;;;;;;5133262;27;21036;-72